sensor_id;sensor_type;location;lat;lon;timestamp;P1;durP1;ratioP1;P2;durP2;ratioP2
55065;SDS011;40964;42.114;24.220;2022-12-04T00:01:20;40.35;;;15.98;;
55065;SDS011;40964;42.114;24.220;2022-12-04T00:03:50;38.63;;;14.70;;
55065;SDS011;40964;42.114;24.220;2022-12-04T00:06:20;57.90;;;19.92;;
55065;SDS011;40964;42.114;24.220;2022-12-04T00:08:47;42.15;;;16.75;;
55065;SDS011;40964;42.114;24.220;2022-12-04T00:11:14;37.28;;;15.05;;
55065;SDS011;40964;42.114;24.220;2022-12-04T00:13:44;43.38;;;15.15;;
55065;SDS011;40964;42.114;24.220;2022-12-04T00:16:11;34.97;;;13.70;;
55065;SDS011;40964;42.114;24.220;2022-12-04T00:18:39;36.65;;;14.85;;
55065;SDS011;40964;42.114;24.220;2022-12-04T00:21:05;40.20;;;14.65;;
55065;SDS011;40964;42.114;24.220;2022-12-04T00:23:33;36.35;;;14.75;;
55065;SDS011;40964;42.114;24.220;2022-12-04T00:26:04;44.63;;;15.73;;
55065;SDS011;40964;42.114;24.220;2022-12-04T00:28:31;36.15;;;14.77;;
55065;SDS011;40964;42.114;24.220;2022-12-04T00:30:57;35.47;;;14.52;;
55065;SDS011;40964;42.114;24.220;2022-12-04T00:33:22;36.78;;;14.40;;
55065;SDS011;40964;42.114;24.220;2022-12-04T00:35:55;34.13;;;12.82;;
55065;SDS011;40964;42.114;24.220;2022-12-04T00:38:23;37.80;;;14.02;;
55065;SDS011;40964;42.114;24.220;2022-12-04T00:40:49;39.42;;;13.70;;
55065;SDS011;40964;42.114;24.220;2022-12-04T00:43:16;33.50;;;13.50;;
55065;SDS011;40964;42.114;24.220;2022-12-04T00:45:41;31.15;;;13.52;;
55065;SDS011;40964;42.114;24.220;2022-12-04T00:48:07;32.53;;;13.27;;
55065;SDS011;40964;42.114;24.220;2022-12-04T00:50:32;36.03;;;12.32;;
55065;SDS011;40964;42.114;24.220;2022-12-04T00:52:58;32.55;;;13.35;;
55065;SDS011;40964;42.114;24.220;2022-12-04T00:55:23;37.08;;;14.00;;
55065;SDS011;40964;42.114;24.220;2022-12-04T00:57:49;34.83;;;13.07;;
55065;SDS011;40964;42.114;24.220;2022-12-04T01:00:14;32.58;;;13.30;;
55065;SDS011;40964;42.114;24.220;2022-12-04T01:02:40;29.90;;;12.70;;
55065;SDS011;40964;42.114;24.220;2022-12-04T01:05:05;35.92;;;13.52;;
55065;SDS011;40964;42.114;24.220;2022-12-04T01:07:31;39.97;;;14.00;;
55065;SDS011;40964;42.114;24.220;2022-12-04T01:09:56;39.25;;;15.57;;
55065;SDS011;40964;42.114;24.220;2022-12-04T01:12:22;39.85;;;14.57;;
55065;SDS011;40964;42.114;24.220;2022-12-04T01:14:47;37.10;;;14.52;;
55065;SDS011;40964;42.114;24.220;2022-12-04T01:17:13;39.97;;;13.57;;
55065;SDS011;40964;42.114;24.220;2022-12-04T01:19:38;36.50;;;15.18;;
55065;SDS011;40964;42.114;24.220;2022-12-04T01:22:04;42.22;;;14.52;;
55065;SDS011;40964;42.114;24.220;2022-12-04T01:24:29;33.97;;;13.90;;
55065;SDS011;40964;42.114;24.220;2022-12-04T01:26:54;39.35;;;13.93;;
55065;SDS011;40964;42.114;24.220;2022-12-04T01:29:20;34.55;;;13.13;;
55065;SDS011;40964;42.114;24.220;2022-12-04T01:31:45;37.08;;;13.95;;
55065;SDS011;40964;42.114;24.220;2022-12-04T01:34:11;33.47;;;13.10;;
55065;SDS011;40964;42.114;24.220;2022-12-04T01:36:36;40.17;;;12.50;;
55065;SDS011;40964;42.114;24.220;2022-12-04T01:39:02;36.28;;;12.93;;
55065;SDS011;40964;42.114;24.220;2022-12-04T01:41:29;35.75;;;13.23;;
55065;SDS011;40964;42.114;24.220;2022-12-04T01:44:10;46.70;;;13.85;;
55065;SDS011;40964;42.114;24.220;2022-12-04T01:46:46;35.63;;;12.90;;
55065;SDS011;40964;42.114;24.220;2022-12-04T01:49:22;36.20;;;12.90;;
55065;SDS011;40964;42.114;24.220;2022-12-04T01:52:06;35.58;;;11.70;;
55065;SDS011;40964;42.114;24.220;2022-12-04T01:54:40;30.98;;;11.82;;
55065;SDS011;40964;42.114;24.220;2022-12-04T01:57:13;36.92;;;12.75;;
55065;SDS011;40964;42.114;24.220;2022-12-04T01:59:48;36.55;;;13.50;;
55065;SDS011;40964;42.114;24.220;2022-12-04T02:02:25;34.65;;;12.85;;
55065;SDS011;40964;42.114;24.220;2022-12-04T02:04:54;37.85;;;12.75;;
55065;SDS011;40964;42.114;24.220;2022-12-04T02:07:20;36.40;;;12.43;;
55065;SDS011;40964;42.114;24.220;2022-12-04T02:09:46;31.90;;;12.60;;
55065;SDS011;40964;42.114;24.220;2022-12-04T02:15:16;38.03;;;12.75;;
55065;SDS011;40964;42.114;24.220;2022-12-04T02:31:10;47.80;;;13.98;;
55065;SDS011;40964;42.114;24.220;2022-12-04T02:36:46;41.45;;;12.70;;
55065;SDS011;40964;42.114;24.220;2022-12-04T02:41:59;31.00;;;11.93;;
55065;SDS011;40964;42.114;24.220;2022-12-04T02:44:34;36.42;;;12.13;;
55065;SDS011;40964;42.114;24.220;2022-12-04T02:47:06;37.55;;;12.20;;
55065;SDS011;40964;42.114;24.220;2022-12-04T02:49:41;36.03;;;12.35;;
55065;SDS011;40964;42.114;24.220;2022-12-04T02:52:12;30.65;;;10.85;;
55065;SDS011;40964;42.114;24.220;2022-12-04T02:54:42;30.52;;;11.50;;
55065;SDS011;40964;42.114;24.220;2022-12-04T02:57:13;42.63;;;12.93;;
55065;SDS011;40964;42.114;24.220;2022-12-04T02:59:44;41.45;;;11.25;;
55065;SDS011;40964;42.114;24.220;2022-12-04T03:04:49;39.58;;;12.02;;
55065;SDS011;40964;42.114;24.220;2022-12-04T03:07:26;42.88;;;12.70;;
55065;SDS011;40964;42.114;24.220;2022-12-04T03:10:15;29.60;;;10.45;;
55065;SDS011;40964;42.114;24.220;2022-12-04T03:13:06;36.63;;;11.90;;
55065;SDS011;40964;42.114;24.220;2022-12-04T03:15:58;30.33;;;9.82;;
55065;SDS011;40964;42.114;24.220;2022-12-04T03:18:36;33.45;;;11.13;;
55065;SDS011;40964;42.114;24.220;2022-12-04T03:21:11;32.65;;;10.23;;
55065;SDS011;40964;42.114;24.220;2022-12-04T03:29:35;32.85;;;10.52;;
55065;SDS011;40964;42.114;24.220;2022-12-04T03:34:44;38.25;;;11.52;;
55065;SDS011;40964;42.114;24.220;2022-12-04T03:37:19;32.83;;;11.73;;
55065;SDS011;40964;42.114;24.220;2022-12-04T03:40:02;36.78;;;11.43;;
55065;SDS011;40964;42.114;24.220;2022-12-04T03:45:14;31.77;;;10.45;;
55065;SDS011;40964;42.114;24.220;2022-12-04T03:50:41;31.27;;;10.07;;
55065;SDS011;40964;42.114;24.220;2022-12-04T03:53:31;36.15;;;10.77;;
55065;SDS011;40964;42.114;24.220;2022-12-04T03:58:38;33.13;;;11.23;;
55065;SDS011;40964;42.114;24.220;2022-12-04T04:01:09;34.67;;;10.40;;
55065;SDS011;40964;42.114;24.220;2022-12-04T04:03:38;36.20;;;10.70;;
55065;SDS011;40964;42.114;24.220;2022-12-04T04:06:13;33.58;;;11.50;;
55065;SDS011;40964;42.114;24.220;2022-12-04T04:08:44;30.17;;;10.93;;
55065;SDS011;40964;42.114;24.220;2022-12-04T04:11:17;41.22;;;10.13;;
55065;SDS011;40964;42.114;24.220;2022-12-04T04:13:52;39.13;;;10.98;;
55065;SDS011;40964;42.114;24.220;2022-12-04T04:16:41;34.88;;;10.32;;
55065;SDS011;40964;42.114;24.220;2022-12-04T04:19:34;32.17;;;10.95;;
55065;SDS011;40964;42.114;24.220;2022-12-04T04:22:19;40.80;;;12.00;;
55065;SDS011;40964;42.114;24.220;2022-12-04T04:25:07;38.22;;;11.95;;
55065;SDS011;40964;42.114;24.220;2022-12-04T04:27:36;38.95;;;11.48;;
55065;SDS011;40964;42.114;24.220;2022-12-04T04:30:02;35.63;;;11.93;;
55065;SDS011;40964;42.114;24.220;2022-12-04T04:32:44;45.75;;;12.85;;
55065;SDS011;40964;42.114;24.220;2022-12-04T04:35:28;50.63;;;11.07;;
55065;SDS011;40964;42.114;24.220;2022-12-04T04:43:39;28.65;;;8.70;;
55065;SDS011;40964;42.114;24.220;2022-12-04T04:46:27;30.42;;;9.65;;
55065;SDS011;40964;42.114;24.220;2022-12-04T04:48:57;48.47;;;11.05;;
55065;SDS011;40964;42.114;24.220;2022-12-04T04:51:26;29.50;;;9.40;;
55065;SDS011;40964;42.114;24.220;2022-12-04T04:53:54;39.05;;;9.75;;
55065;SDS011;40964;42.114;24.220;2022-12-04T04:56:23;35.75;;;11.55;;
55065;SDS011;40964;42.114;24.220;2022-12-04T04:58:49;42.03;;;14.52;;
55065;SDS011;40964;42.114;24.220;2022-12-04T05:01:15;39.85;;;13.38;;
55065;SDS011;40964;42.114;24.220;2022-12-04T05:03:43;37.42;;;12.52;;
55065;SDS011;40964;42.114;24.220;2022-12-04T05:06:09;44.33;;;12.88;;
55065;SDS011;40964;42.114;24.220;2022-12-04T05:08:34;33.85;;;10.23;;
55065;SDS011;40964;42.114;24.220;2022-12-04T05:11:00;47.42;;;11.57;;
55065;SDS011;40964;42.114;24.220;2022-12-04T05:13:27;40.50;;;12.15;;
55065;SDS011;40964;42.114;24.220;2022-12-04T05:15:57;54.88;;;11.48;;
55065;SDS011;40964;42.114;24.220;2022-12-04T05:18:24;62.28;;;12.00;;
55065;SDS011;40964;42.114;24.220;2022-12-04T05:20:49;75.20;;;13.55;;
55065;SDS011;40964;42.114;24.220;2022-12-04T05:23:15;40.13;;;9.70;;
55065;SDS011;40964;42.114;24.220;2022-12-04T05:25:40;43.15;;;10.75;;
55065;SDS011;40964;42.114;24.220;2022-12-04T05:28:06;63.05;;;10.68;;
55065;SDS011;40964;42.114;24.220;2022-12-04T05:30:31;41.47;;;10.13;;
55065;SDS011;40964;42.114;24.220;2022-12-04T05:32:57;71.13;;;11.52;;
55065;SDS011;40964;42.114;24.220;2022-12-04T05:35:22;45.65;;;11.77;;
55065;SDS011;40964;42.114;24.220;2022-12-04T05:37:47;47.95;;;11.27;;
55065;SDS011;40964;42.114;24.220;2022-12-04T05:40:13;45.88;;;11.98;;
55065;SDS011;40964;42.114;24.220;2022-12-04T05:42:38;44.72;;;10.73;;
55065;SDS011;40964;42.114;24.220;2022-12-04T05:45:04;52.28;;;11.65;;
55065;SDS011;40964;42.114;24.220;2022-12-04T05:47:30;56.45;;;11.02;;
55065;SDS011;40964;42.114;24.220;2022-12-04T05:49:55;58.30;;;11.60;;
55065;SDS011;40964;42.114;24.220;2022-12-04T05:52:22;55.97;;;11.75;;
55065;SDS011;40964;42.114;24.220;2022-12-04T05:54:47;61.13;;;11.27;;
55065;SDS011;40964;42.114;24.220;2022-12-04T05:57:12;61.60;;;11.45;;
55065;SDS011;40964;42.114;24.220;2022-12-04T05:59:38;44.65;;;11.70;;
55065;SDS011;40964;42.114;24.220;2022-12-04T06:02:04;53.20;;;12.82;;
55065;SDS011;40964;42.114;24.220;2022-12-04T06:04:29;54.60;;;12.68;;
55065;SDS011;40964;42.114;24.220;2022-12-04T06:06:54;44.15;;;10.80;;
55065;SDS011;40964;42.114;24.220;2022-12-04T06:09:20;54.72;;;13.13;;
55065;SDS011;40964;42.114;24.220;2022-12-04T06:11:46;55.50;;;11.27;;
55065;SDS011;40964;42.114;24.220;2022-12-04T06:14:12;100.80;;;15.35;;
55065;SDS011;40964;42.114;24.220;2022-12-04T06:16:40;71.28;;;12.68;;
55065;SDS011;40964;42.114;24.220;2022-12-04T06:19:09;57.92;;;9.93;;
55065;SDS011;40964;42.114;24.220;2022-12-04T06:21:38;70.78;;;13.35;;
55065;SDS011;40964;42.114;24.220;2022-12-04T06:24:04;51.30;;;11.60;;
55065;SDS011;40964;42.114;24.220;2022-12-04T06:26:30;52.38;;;13.10;;
55065;SDS011;40964;42.114;24.220;2022-12-04T06:28:56;38.00;;;11.45;;
55065;SDS011;40964;42.114;24.220;2022-12-04T06:31:23;56.83;;;12.65;;
55065;SDS011;40964;42.114;24.220;2022-12-04T06:33:54;50.40;;;11.05;;
55065;SDS011;40964;42.114;24.220;2022-12-04T06:36:22;65.45;;;12.23;;
55065;SDS011;40964;42.114;24.220;2022-12-04T06:38:48;32.63;;;10.20;;
55065;SDS011;40964;42.114;24.220;2022-12-04T06:41:16;49.70;;;12.10;;
55065;SDS011;40964;42.114;24.220;2022-12-04T06:43:43;50.50;;;12.30;;
55065;SDS011;40964;42.114;24.220;2022-12-04T06:46:13;58.83;;;11.60;;
55065;SDS011;40964;42.114;24.220;2022-12-04T06:48:41;43.30;;;10.10;;
55065;SDS011;40964;42.114;24.220;2022-12-04T06:51:26;43.00;;;10.80;;
55065;SDS011;40964;42.114;24.220;2022-12-04T06:53:53;49.75;;;11.15;;
55065;SDS011;40964;42.114;24.220;2022-12-04T06:56:20;37.85;;;10.43;;
55065;SDS011;40964;42.114;24.220;2022-12-04T06:58:49;48.00;;;11.70;;
55065;SDS011;40964;42.114;24.220;2022-12-04T07:01:17;58.03;;;11.48;;
55065;SDS011;40964;42.114;24.220;2022-12-04T07:03:45;53.33;;;9.48;;
55065;SDS011;40964;42.114;24.220;2022-12-04T07:06:22;112.82;;;9.68;;
55065;SDS011;40964;42.114;24.220;2022-12-04T07:08:50;80.22;;;10.68;;
55065;SDS011;40964;42.114;24.220;2022-12-04T07:11:18;110.55;;;10.65;;
55065;SDS011;40964;42.114;24.220;2022-12-04T07:13:45;85.43;;;10.18;;
55065;SDS011;40964;42.114;24.220;2022-12-04T07:16:12;115.65;;;11.70;;
55065;SDS011;40964;42.114;24.220;2022-12-04T07:18:38;85.22;;;9.27;;
55065;SDS011;40964;42.114;24.220;2022-12-04T07:21:05;100.70;;;14.02;;
55065;SDS011;40964;42.114;24.220;2022-12-04T07:23:35;105.40;;;15.50;;
55065;SDS011;40964;42.114;24.220;2022-12-04T07:26:05;60.83;;;13.80;;
55065;SDS011;40964;42.114;24.220;2022-12-04T07:28:33;50.08;;;13.50;;
55065;SDS011;40964;42.114;24.220;2022-12-04T07:31:06;40.28;;;10.73;;
55065;SDS011;40964;42.114;24.220;2022-12-04T07:33:33;54.33;;;13.57;;
55065;SDS011;40964;42.114;24.220;2022-12-04T07:36:00;37.63;;;12.23;;
55065;SDS011;40964;42.114;24.220;2022-12-04T07:38:27;62.03;;;13.88;;
55065;SDS011;40964;42.114;24.220;2022-12-04T07:40:57;90.00;;;12.50;;
55065;SDS011;40964;42.114;24.220;2022-12-04T07:43:23;49.80;;;12.85;;
55065;SDS011;40964;42.114;24.220;2022-12-04T07:45:49;50.42;;;12.75;;
55065;SDS011;40964;42.114;24.220;2022-12-04T07:48:15;39.25;;;12.57;;
55065;SDS011;40964;42.114;24.220;2022-12-04T07:50:41;48.40;;;15.90;;
55065;SDS011;40964;42.114;24.220;2022-12-04T07:53:06;51.17;;;10.38;;
55065;SDS011;40964;42.114;24.220;2022-12-04T07:55:32;99.32;;;18.63;;
55065;SDS011;40964;42.114;24.220;2022-12-04T07:57:57;110.97;;;18.85;;
55065;SDS011;40964;42.114;24.220;2022-12-04T08:00:23;207.50;;;14.93;;
55065;SDS011;40964;42.114;24.220;2022-12-04T08:02:48;136.65;;;15.38;;
55065;SDS011;40964;42.114;24.220;2022-12-04T08:05:14;113.22;;;13.88;;
55065;SDS011;40964;42.114;24.220;2022-12-04T08:07:40;33.03;;;8.00;;
55065;SDS011;40964;42.114;24.220;2022-12-04T08:10:06;80.72;;;11.60;;
55065;SDS011;40964;42.114;24.220;2022-12-04T08:12:31;74.30;;;12.85;;
55065;SDS011;40964;42.114;24.220;2022-12-04T08:14:57;72.70;;;12.43;;
55065;SDS011;40964;42.114;24.220;2022-12-04T08:17:23;48.50;;;10.20;;
55065;SDS011;40964;42.114;24.220;2022-12-04T08:19:48;60.05;;;12.30;;
55065;SDS011;40964;42.114;24.220;2022-12-04T08:22:14;82.93;;;16.75;;
55065;SDS011;40964;42.114;24.220;2022-12-04T08:24:39;44.42;;;13.73;;
55065;SDS011;40964;42.114;24.220;2022-12-04T08:27:05;56.20;;;13.80;;
55065;SDS011;40964;42.114;24.220;2022-12-04T08:29:30;57.20;;;14.15;;
55065;SDS011;40964;42.114;24.220;2022-12-04T08:31:56;70.53;;;13.20;;
55065;SDS011;40964;42.114;24.220;2022-12-04T08:34:22;54.45;;;13.15;;
55065;SDS011;40964;42.114;24.220;2022-12-04T08:36:48;48.67;;;13.75;;
55065;SDS011;40964;42.114;24.220;2022-12-04T08:39:13;64.03;;;15.82;;
55065;SDS011;40964;42.114;24.220;2022-12-04T08:41:39;69.82;;;14.40;;
55065;SDS011;40964;42.114;24.220;2022-12-04T08:44:04;63.58;;;15.13;;
55065;SDS011;40964;42.114;24.220;2022-12-04T08:46:30;57.65;;;13.27;;
55065;SDS011;40964;42.114;24.220;2022-12-04T08:48:56;53.08;;;15.68;;
55065;SDS011;40964;42.114;24.220;2022-12-04T08:51:23;49.58;;;14.30;;
55065;SDS011;40964;42.114;24.220;2022-12-04T08:54:00;52.03;;;13.82;;
55065;SDS011;40964;42.114;24.220;2022-12-04T08:56:27;43.70;;;12.63;;
55065;SDS011;40964;42.114;24.220;2022-12-04T08:58:54;42.92;;;13.20;;
55065;SDS011;40964;42.114;24.220;2022-12-04T09:01:20;47.92;;;15.95;;
55065;SDS011;40964;42.114;24.220;2022-12-04T09:03:46;55.85;;;12.98;;
55065;SDS011;40964;42.114;24.220;2022-12-04T09:06:12;36.38;;;11.63;;
55065;SDS011;40964;42.114;24.220;2022-12-04T09:08:41;60.83;;;21.25;;
55065;SDS011;40964;42.114;24.220;2022-12-04T09:11:09;50.83;;;15.82;;
55065;SDS011;40964;42.114;24.220;2022-12-04T09:13:37;44.80;;;15.60;;
55065;SDS011;40964;42.114;24.220;2022-12-04T09:16:04;40.15;;;12.10;;
55065;SDS011;40964;42.114;24.220;2022-12-04T09:18:32;70.13;;;20.80;;
55065;SDS011;40964;42.114;24.220;2022-12-04T09:20:59;54.08;;;17.30;;
55065;SDS011;40964;42.114;24.220;2022-12-04T09:23:26;59.20;;;18.90;;
55065;SDS011;40964;42.114;24.220;2022-12-04T09:25:52;50.25;;;15.98;;
55065;SDS011;40964;42.114;24.220;2022-12-04T09:28:18;54.42;;;17.98;;
55065;SDS011;40964;42.114;24.220;2022-12-04T09:30:44;58.97;;;19.33;;
55065;SDS011;40964;42.114;24.220;2022-12-04T09:33:10;59.25;;;17.27;;
55065;SDS011;40964;42.114;24.220;2022-12-04T09:35:37;47.88;;;17.38;;
55065;SDS011;40964;42.114;24.220;2022-12-04T09:38:02;65.63;;;19.40;;
55065;SDS011;40964;42.114;24.220;2022-12-04T09:40:29;58.63;;;17.10;;
55065;SDS011;40964;42.114;24.220;2022-12-04T09:43:05;47.55;;;17.05;;
55065;SDS011;40964;42.114;24.220;2022-12-04T09:45:50;62.97;;;22.85;;
55065;SDS011;40964;42.114;24.220;2022-12-04T09:48:20;61.17;;;17.73;;
55065;SDS011;40964;42.114;24.220;2022-12-04T09:50:51;45.47;;;12.90;;
55065;SDS011;40964;42.114;24.220;2022-12-04T09:53:19;63.17;;;18.98;;
55065;SDS011;40964;42.114;24.220;2022-12-04T09:56:05;61.30;;;20.83;;
55065;SDS011;40964;42.114;24.220;2022-12-04T09:58:41;60.33;;;21.05;;
55065;SDS011;40964;42.114;24.220;2022-12-04T10:01:31;58.60;;;19.80;;
55065;SDS011;40964;42.114;24.220;2022-12-04T10:04:07;51.13;;;21.13;;
55065;SDS011;40964;42.114;24.220;2022-12-04T10:06:40;71.63;;;21.90;;
55065;SDS011;40964;42.114;24.220;2022-12-04T10:09:36;55.22;;;20.55;;
55065;SDS011;40964;42.114;24.220;2022-12-04T10:18:10;67.47;;;21.83;;
55065;SDS011;40964;42.114;24.220;2022-12-04T10:26:10;55.25;;;16.90;;
55065;SDS011;40964;42.114;24.220;2022-12-04T10:28:44;50.97;;;16.05;;
55065;SDS011;40964;42.114;24.220;2022-12-04T10:31:14;45.53;;;15.65;;
55065;SDS011;40964;42.114;24.220;2022-12-04T10:33:41;47.67;;;14.20;;
55065;SDS011;40964;42.114;24.220;2022-12-04T10:36:13;52.35;;;15.50;;
55065;SDS011;40964;42.114;24.220;2022-12-04T10:38:52;49.80;;;14.73;;
55065;SDS011;40964;42.114;24.220;2022-12-04T10:44:13;42.85;;;14.95;;
55065;SDS011;40964;42.114;24.220;2022-12-04T10:46:40;73.55;;;22.55;;
55065;SDS011;40964;42.114;24.220;2022-12-04T10:49:18;49.33;;;13.68;;
55065;SDS011;40964;42.114;24.220;2022-12-04T10:51:47;63.90;;;18.02;;
55065;SDS011;40964;42.114;24.220;2022-12-04T10:57:02;50.97;;;14.55;;
55065;SDS011;40964;42.114;24.220;2022-12-04T10:59:29;61.90;;;15.80;;
55065;SDS011;40964;42.114;24.220;2022-12-04T11:01:59;46.72;;;14.25;;
55065;SDS011;40964;42.114;24.220;2022-12-04T11:04:37;49.65;;;14.02;;
55065;SDS011;40964;42.114;24.220;2022-12-04T11:07:07;49.50;;;12.93;;
55065;SDS011;40964;42.114;24.220;2022-12-04T11:09:42;52.20;;;15.05;;
55065;SDS011;40964;42.114;24.220;2022-12-04T11:12:14;52.50;;;13.77;;
55065;SDS011;40964;42.114;24.220;2022-12-04T11:14:42;43.63;;;13.65;;
55065;SDS011;40964;42.114;24.220;2022-12-04T11:17:12;39.30;;;12.30;;
55065;SDS011;40964;42.114;24.220;2022-12-04T11:19:41;65.20;;;19.17;;
55065;SDS011;40964;42.114;24.220;2022-12-04T11:22:17;46.30;;;15.52;;
55065;SDS011;40964;42.114;24.220;2022-12-04T11:24:49;47.00;;;15.13;;
55065;SDS011;40964;42.114;24.220;2022-12-04T11:27:21;61.60;;;15.68;;
55065;SDS011;40964;42.114;24.220;2022-12-04T11:29:51;44.78;;;15.30;;
55065;SDS011;40964;42.114;24.220;2022-12-04T11:32:24;46.33;;;16.20;;
55065;SDS011;40964;42.114;24.220;2022-12-04T11:34:53;49.78;;;13.40;;
55065;SDS011;40964;42.114;24.220;2022-12-04T11:37:25;57.45;;;15.88;;
55065;SDS011;40964;42.114;24.220;2022-12-04T11:39:54;50.10;;;13.88;;
55065;SDS011;40964;42.114;24.220;2022-12-04T11:42:24;42.08;;;13.43;;
55065;SDS011;40964;42.114;24.220;2022-12-04T11:44:55;57.95;;;16.25;;
55065;SDS011;40964;42.114;24.220;2022-12-04T11:47:23;49.55;;;15.18;;
55065;SDS011;40964;42.114;24.220;2022-12-04T11:52:50;52.58;;;16.35;;
55065;SDS011;40964;42.114;24.220;2022-12-04T12:04:01;67.82;;;17.50;;
55065;SDS011;40964;42.114;24.220;2022-12-04T12:07:02;45.28;;;14.98;;
55065;SDS011;40964;42.114;24.220;2022-12-04T12:20:36;71.90;;;21.90;;
55065;SDS011;40964;42.114;24.220;2022-12-04T12:31:22;46.75;;;13.60;;
55065;SDS011;40964;42.114;24.220;2022-12-04T12:34:04;34.17;;;13.68;;
55065;SDS011;40964;42.114;24.220;2022-12-04T12:36:38;52.45;;;17.50;;
55065;SDS011;40964;42.114;24.220;2022-12-04T12:39:10;52.22;;;17.23;;
55065;SDS011;40964;42.114;24.220;2022-12-04T12:41:45;41.15;;;13.23;;
55065;SDS011;40964;42.114;24.220;2022-12-04T12:44:18;45.58;;;15.95;;
55065;SDS011;40964;42.114;24.220;2022-12-04T12:46:52;50.60;;;16.45;;
55065;SDS011;40964;42.114;24.220;2022-12-04T12:49:26;61.80;;;20.45;;
55065;SDS011;40964;42.114;24.220;2022-12-04T12:57:43;47.15;;;16.13;;
55065;SDS011;40964;42.114;24.220;2022-12-04T13:02:44;48.60;;;17.98;;
55065;SDS011;40964;42.114;24.220;2022-12-04T13:05:16;42.92;;;15.75;;
55065;SDS011;40964;42.114;24.220;2022-12-04T13:07:57;35.88;;;12.85;;
55065;SDS011;40964;42.114;24.220;2022-12-04T13:10:32;52.63;;;18.30;;
55065;SDS011;40964;42.114;24.220;2022-12-04T13:13:13;56.75;;;16.30;;
55065;SDS011;40964;42.114;24.220;2022-12-04T13:18:24;32.88;;;12.80;;
55065;SDS011;40964;42.114;24.220;2022-12-04T13:20:54;63.35;;;20.42;;
55065;SDS011;40964;42.114;24.220;2022-12-04T13:39:57;36.60;;;13.38;;
55065;SDS011;40964;42.114;24.220;2022-12-04T13:42:47;40.95;;;14.38;;
55065;SDS011;40964;42.114;24.220;2022-12-04T13:45:26;41.38;;;15.10;;
55065;SDS011;40964;42.114;24.220;2022-12-04T13:47:57;28.63;;;11.93;;
55065;SDS011;40964;42.114;24.220;2022-12-04T13:50:43;39.08;;;14.23;;
55065;SDS011;40964;42.114;24.220;2022-12-04T13:53:28;33.33;;;13.00;;
55065;SDS011;40964;42.114;24.220;2022-12-04T13:55:55;41.33;;;14.40;;
55065;SDS011;40964;42.114;24.220;2022-12-04T13:58:26;36.33;;;14.57;;
55065;SDS011;40964;42.114;24.220;2022-12-04T14:03:27;33.65;;;13.05;;
55065;SDS011;40964;42.114;24.220;2022-12-04T14:06:02;46.10;;;16.25;;
55065;SDS011;40964;42.114;24.220;2022-12-04T14:08:40;57.83;;;22.70;;
55065;SDS011;40964;42.114;24.220;2022-12-04T14:11:16;45.85;;;18.70;;
55065;SDS011;40964;42.114;24.220;2022-12-04T14:13:47;79.25;;;26.92;;
55065;SDS011;40964;42.114;24.220;2022-12-04T14:18:50;65.72;;;25.10;;
55065;SDS011;40964;42.114;24.220;2022-12-04T14:21:18;41.78;;;16.00;;
55065;SDS011;40964;42.114;24.220;2022-12-04T14:23:43;49.00;;;16.38;;
55065;SDS011;40964;42.114;24.220;2022-12-04T14:31:42;46.70;;;16.92;;
55065;SDS011;40964;42.114;24.220;2022-12-04T14:34:18;53.80;;;19.63;;
55065;SDS011;40964;42.114;24.220;2022-12-04T14:36:46;40.42;;;16.20;;
55065;SDS011;40964;42.114;24.220;2022-12-04T14:39:28;37.55;;;14.90;;
55065;SDS011;40964;42.114;24.220;2022-12-04T14:42:12;33.08;;;14.27;;
55065;SDS011;40964;42.114;24.220;2022-12-04T14:44:45;36.97;;;14.98;;
55065;SDS011;40964;42.114;24.220;2022-12-04T14:55:40;70.40;;;28.63;;
55065;SDS011;40964;42.114;24.220;2022-12-04T14:58:17;53.53;;;21.23;;
55065;SDS011;40964;42.114;24.220;2022-12-04T15:00:54;64.85;;;25.20;;
55065;SDS011;40964;42.114;24.220;2022-12-04T15:03:21;93.00;;;33.45;;
55065;SDS011;40964;42.114;24.220;2022-12-04T15:05:49;245.98;;;73.93;;
55065;SDS011;40964;42.114;24.220;2022-12-04T15:08:15;144.45;;;48.53;;
55065;SDS011;40964;42.114;24.220;2022-12-04T15:10:48;67.40;;;27.65;;
55065;SDS011;40964;42.114;24.220;2022-12-04T15:13:34;63.10;;;26.38;;
55065;SDS011;40964;42.114;24.220;2022-12-04T15:16:14;34.30;;;16.65;;
55065;SDS011;40964;42.114;24.220;2022-12-04T15:18:40;41.83;;;17.20;;
55065;SDS011;40964;42.114;24.220;2022-12-04T15:21:06;59.58;;;24.23;;
55065;SDS011;40964;42.114;24.220;2022-12-04T15:23:35;69.88;;;31.20;;
55065;SDS011;40964;42.114;24.220;2022-12-04T15:26:08;41.28;;;20.58;;
55065;SDS011;40964;42.114;24.220;2022-12-04T15:28:40;41.95;;;18.65;;
55065;SDS011;40964;42.114;24.220;2022-12-04T15:31:09;53.63;;;22.83;;
55065;SDS011;40964;42.114;24.220;2022-12-04T15:33:39;46.72;;;19.15;;
55065;SDS011;40964;42.114;24.220;2022-12-04T15:38:31;31.92;;;14.02;;
55065;SDS011;40964;42.114;24.220;2022-12-04T15:40:57;47.55;;;19.88;;
55065;SDS011;40964;42.114;24.220;2022-12-04T15:43:45;51.28;;;22.08;;
55065;SDS011;40964;42.114;24.220;2022-12-04T15:46:14;49.22;;;19.83;;
55065;SDS011;40964;42.114;24.220;2022-12-04T15:48:46;135.73;;;51.40;;
55065;SDS011;40964;42.114;24.220;2022-12-04T15:51:11;70.40;;;23.90;;
55065;SDS011;40964;42.114;24.220;2022-12-04T15:53:42;59.15;;;21.92;;
55065;SDS011;40964;42.114;24.220;2022-12-04T15:56:16;56.05;;;18.92;;
55065;SDS011;40964;42.114;24.220;2022-12-04T15:58:52;51.25;;;15.75;;
55065;SDS011;40964;42.114;24.220;2022-12-04T16:01:21;38.05;;;16.70;;
55065;SDS011;40964;42.114;24.220;2022-12-04T16:03:48;30.52;;;14.05;;
55065;SDS011;40964;42.114;24.220;2022-12-04T16:08:59;48.28;;;17.35;;
55065;SDS011;40964;42.114;24.220;2022-12-04T16:11:45;52.67;;;19.83;;
55065;SDS011;40964;42.114;24.220;2022-12-04T16:14:28;51.78;;;21.58;;
55065;SDS011;40964;42.114;24.220;2022-12-04T16:16:54;42.63;;;17.10;;
55065;SDS011;40964;42.114;24.220;2022-12-04T16:19:28;37.28;;;14.57;;
55065;SDS011;40964;42.114;24.220;2022-12-04T16:21:56;43.22;;;16.42;;
55065;SDS011;40964;42.114;24.220;2022-12-04T16:24:23;60.60;;;22.52;;
55065;SDS011;40964;42.114;24.220;2022-12-04T16:26:49;56.17;;;23.52;;
55065;SDS011;40964;42.114;24.220;2022-12-04T16:29:16;55.70;;;22.58;;
55065;SDS011;40964;42.114;24.220;2022-12-04T16:31:41;69.55;;;25.23;;
55065;SDS011;40964;42.114;24.220;2022-12-04T16:34:08;59.10;;;22.65;;
55065;SDS011;40964;42.114;24.220;2022-12-04T16:36:35;46.08;;;19.63;;
55065;SDS011;40964;42.114;24.220;2022-12-04T16:39:01;43.63;;;19.10;;
55065;SDS011;40964;42.114;24.220;2022-12-04T16:41:27;45.53;;;18.23;;
55065;SDS011;40964;42.114;24.220;2022-12-04T16:43:53;38.30;;;16.15;;
55065;SDS011;40964;42.114;24.220;2022-12-04T16:46:22;51.67;;;25.77;;
55065;SDS011;40964;42.114;24.220;2022-12-04T16:48:49;47.65;;;20.58;;
55065;SDS011;40964;42.114;24.220;2022-12-04T16:51:15;28.83;;;15.07;;
55065;SDS011;40964;42.114;24.220;2022-12-04T16:53:42;43.60;;;19.92;;